createdAt,value
2022-10-02T00:02:20.317Z,94.04
2022-10-02T00:04:57.792Z,92.95
2022-10-02T00:07:36.400Z,93.09
2022-10-02T00:10:18.682Z,93.28
2022-10-02T00:12:51.372Z,93.55
2022-10-02T00:15:27.730Z,92.82
2022-10-02T00:18:02.506Z,92.09
2022-10-02T00:20:42.909Z,92.63
2022-10-02T00:23:21.344Z,91.37
2022-10-02T00:26:00.373Z,92.69
2022-10-02T00:28:36.866Z,92.79
2022-10-02T00:31:27.947Z,92.59
2022-10-02T00:34:20.453Z,91.80
2022-10-02T00:37:04.859Z,91.88
2022-10-02T00:39:55.935Z,91.85
2022-10-02T00:42:58.863Z,91.76
2022-10-02T00:46:20.262Z,91.41
2022-10-02T00:49:05.133Z,92.29
2022-10-02T00:51:52.073Z,92.06
2022-10-02T00:54:53.050Z,92.86
2022-10-02T00:57:39.435Z,92.11
2022-10-02T01:00:11.989Z,92.48
2022-10-02T01:03:09.037Z,92.16
2022-10-02T01:05:38.020Z,91.23
2022-10-02T01:08:07.447Z,92.06
2022-10-02T01:10:38.238Z,93.60
2022-10-02T01:13:07.540Z,93.05
2022-10-02T01:15:42.427Z,92.88
2022-10-02T01:18:14.720Z,94.12
2022-10-02T01:20:46.755Z,93.35
2022-10-02T01:23:30.458Z,93.81
2022-10-02T01:26:00.186Z,93.13
2022-10-02T01:28:29.178Z,92.59
2022-10-02T01:31:05.598Z,93.13
2022-10-02T01:33:34.275Z,92.85
2022-10-02T01:36:02.466Z,92.44
2022-10-02T01:38:31.599Z,92.54
2022-10-02T01:41:00.818Z,92.48
2022-10-02T01:43:33.092Z,91.68
2022-10-02T01:46:21.018Z,91.62
2022-10-02T01:49:06.868Z,89.56
2022-10-02T01:51:59.140Z,90.60
2022-10-02T01:54:46.948Z,90.51
2022-10-02T01:57:36.356Z,89.82
2022-10-02T02:00:10.460Z,89.21
2022-10-02T02:02:53.534Z,88.33
2022-10-02T02:05:39.483Z,88.58
2022-10-02T02:08:17.785Z,87.27
2022-10-02T02:10:59.656Z,87.46
2022-10-02T02:13:37.206Z,86.86
2022-10-02T02:16:21.603Z,86.06
2022-10-02T02:18:57.705Z,86.64
2022-10-02T02:21:31.222Z,87.23
2022-10-02T02:24:04.859Z,87.17
2022-10-02T02:26:33.922Z,87.57
2022-10-02T02:29:09.470Z,88.90
2022-10-02T02:31:47.343Z,88.05
2022-10-02T02:34:21.504Z,89.10
2022-10-02T02:36:57.599Z,89.71
2022-10-02T02:39:34.606Z,89.92
2022-10-02T02:42:10.219Z,89.62
2022-10-02T02:44:49.461Z,89.32
2022-10-02T02:47:23.646Z,90.36
2022-10-02T02:50:01.138Z,91.14
2022-10-02T02:52:35.848Z,90.88
2022-10-02T02:55:10.291Z,90.47
2022-10-02T02:57:48.865Z,90.44
2022-10-02T03:00:20.119Z,90.68
2022-10-02T03:02:50.418Z,90.99
2022-10-02T03:05:19.452Z,91.12
2022-10-02T03:07:54.605Z,90.73
2022-10-02T03:10:44.960Z,90.70
2022-10-02T03:13:38.184Z,90.92
2022-10-02T03:16:30.105Z,90.75
2022-10-02T03:19:14.946Z,90.75
2022-10-02T03:21:56.866Z,91.38
2022-10-02T03:24:35.404Z,90.09
2022-10-02T03:27:11.714Z,91.09
2022-10-02T03:29:47.081Z,90.99
2022-10-02T03:32:18.852Z,91.32
2022-10-02T03:34:48.639Z,90.46
2022-10-02T03:37:18.225Z,91.00
2022-10-02T03:39:46.243Z,91.84
2022-10-02T03:42:15.665Z,92.29
2022-10-02T03:44:43.945Z,93.29
2022-10-02T03:47:11.750Z,94.39
2022-10-02T03:49:40.910Z,93.90
2022-10-02T03:52:16.554Z,93.03
2022-10-02T03:54:45.127Z,93.05
2022-10-02T03:57:19.833Z,94.15
2022-10-02T03:59:57.465Z,94.11
2022-10-02T04:02:38.067Z,94.42
2022-10-02T04:05:20.965Z,94.55
2022-10-02T04:07:54.765Z,92.99
2022-10-02T04:10:32.779Z,92.26
2022-10-02T04:13:11.744Z,93.66
2022-10-02T04:15:57.828Z,93.15
2022-10-02T04:18:33.586Z,92.54
2022-10-02T04:21:12.429Z,91.79
2022-10-02T04:23:48.504Z,92.43
2022-10-02T04:26:24.587Z,93.57
2022-10-02T04:29:01.613Z,91.55
2022-10-02T04:31:29.565Z,93.34
2022-10-02T04:34:03.118Z,95.34
2022-10-02T04:36:53.678Z,95.13
2022-10-02T04:39:50.401Z,94.91
2022-10-02T04:42:38.081Z,94.69
2022-10-02T04:45:30.281Z,95.66
2022-10-02T04:48:43.652Z,94.35
2022-10-02T04:51:32.372Z,95.41
2022-10-02T04:54:33.989Z,95.49
2022-10-02T04:57:22.308Z,96.56
2022-10-02T05:00:09.118Z,97.03
2022-10-02T05:03:02.377Z,96.68
2022-10-02T05:06:06.067Z,95.57
2022-10-02T05:08:54.955Z,96.63
2022-10-02T05:11:56.579Z,96.13
2022-10-02T05:14:51.957Z,95.78
2022-10-02T05:17:42.102Z,95.59
2022-10-02T05:20:46.861Z,97.30
2022-10-02T05:23:36.417Z,96.66
2022-10-02T05:26:27.415Z,97.00
2022-10-02T05:29:31.184Z,97.22
2022-10-02T05:32:22.368Z,98.60
2022-10-02T05:35:12.409Z,97.98
2022-10-02T05:37:56.765Z,99.00
2022-10-02T05:40:33.928Z,98.51
2022-10-02T05:43:08.411Z,98.14
2022-10-02T05:45:44.149Z,98.45
2022-10-02T05:48:20.451Z,99.03
2022-10-02T05:50:59.191Z,97.76
2022-10-02T05:53:35.965Z,96.90
2022-10-02T05:56:15.530Z,95.93
2022-10-02T05:58:54.495Z,97.13
2022-10-02T06:01:30.576Z,96.91
2022-10-02T06:04:09.563Z,96.63
2022-10-02T06:06:45.910Z,95.68
2022-10-02T06:09:20.640Z,96.37
2022-10-02T06:11:56.049Z,95.34
2022-10-02T06:14:32.119Z,95.94
2022-10-02T06:17:07.599Z,95.90
2022-10-02T06:19:39.547Z,96.67
2022-10-02T06:22:15.549Z,96.45
2022-10-02T06:24:51.108Z,96.56
2022-10-02T06:27:29.334Z,95.52
2022-10-02T06:30:02.845Z,96.25
2022-10-02T06:32:42.134Z,94.42
2022-10-02T06:35:14.228Z,94.04
2022-10-02T06:38:06.140Z,94.51
2022-10-02T06:40:51.133Z,93.04
2022-10-02T06:43:44.102Z,92.69
2022-10-02T06:46:27.968Z,92.91
2022-10-02T06:49:04.418Z,92.52
2022-10-02T06:51:49.928Z,92.70
2022-10-02T06:54:44.185Z,93.45
2022-10-02T06:57:39.553Z,91.22
2022-10-02T07:00:14.601Z,93.11
2022-10-02T07:03:29.349Z,92.08
2022-10-02T07:06:14.878Z,92.51
2022-10-02T07:09:34.964Z,91.67
2022-10-02T07:12:26.642Z,91.88
2022-10-02T07:15:26.239Z,93.21
2022-10-02T07:18:12.044Z,93.47
2022-10-02T07:20:56.841Z,92.83
2022-10-02T07:23:46.592Z,92.84
2022-10-02T07:26:46.030Z,93.21
2022-10-02T07:29:30.699Z,92.38
2022-10-02T07:32:30.923Z,92.87
2022-10-02T07:35:17.138Z,90.77
2022-10-02T07:38:04.397Z,90.46
2022-10-02T07:40:56.954Z,88.74
2022-10-02T07:43:48.735Z,88.96
2022-10-02T07:46:26.324Z,86.89
2022-10-02T07:49:18.457Z,86.39
2022-10-02T07:51:56.761Z,86.98
2022-10-02T07:54:53.896Z,87.89
2022-10-02T07:57:36.998Z,86.04
2022-10-02T08:00:12.966Z,86.32
2022-10-02T08:02:50.265Z,85.89
2022-10-02T08:05:23.737Z,87.43
2022-10-02T08:07:59.102Z,87.28
2022-10-02T08:10:32.638Z,87.25
2022-10-02T08:13:12.304Z,86.19
2022-10-02T08:15:44.241Z,86.64
2022-10-02T08:18:34.214Z,86.39
2022-10-02T08:21:10.488Z,86.37
2022-10-02T08:23:48.326Z,86.53
2022-10-02T08:26:24.514Z,86.58
2022-10-02T08:29:05.468Z,85.41
2022-10-02T08:31:33.611Z,85.26
2022-10-02T08:34:16.443Z,83.89
2022-10-02T08:37:15.602Z,84.75
2022-10-02T08:40:36.868Z,83.58
2022-10-02T08:43:45.019Z,79.85
2022-10-02T08:47:07.221Z,79.67
2022-10-02T08:50:20.160Z,80.58
2022-10-02T08:53:34.900Z,78.22
2022-10-02T08:56:23.072Z,77.31
2022-10-02T08:59:36.680Z,77.63
2022-10-02T09:03:11.977Z,77.35
2022-10-02T09:06:38.687Z,75.53
2022-10-02T09:10:08.737Z,75.76
2022-10-02T09:13:40.134Z,75.30
2022-10-02T09:16:12.767Z,74.75
2022-10-02T09:19:00.169Z,74.04
2022-10-02T09:21:52.121Z,73.87
2022-10-02T09:25:01.333Z,71.68
2022-10-02T09:28:10.537Z,71.67
2022-10-02T09:31:51.969Z,69.93
2022-10-02T09:35:06.802Z,69.89
2022-10-02T09:38:07.045Z,70.12
2022-10-02T09:41:28.029Z,68.47
2022-10-02T09:44:43.648Z,69.12
2022-10-02T09:48:30.174Z,69.39
2022-10-02T09:51:42.499Z,70.04
2022-10-02T09:55:00.508Z,70.69
2022-10-02T09:58:26.476Z,67.68
2022-10-02T10:01:35.576Z,68.10
2022-10-02T10:05:06.048Z,65.14
2022-10-02T10:08:08.148Z,63.13
2022-10-02T10:11:19.776Z,61.04
2022-10-02T10:14:45.842Z,59.53
2022-10-02T10:18:17.276Z,57.45
2022-10-02T10:21:52.102Z,57.89
2022-10-02T10:25:03.499Z,57.13
2022-10-02T10:28:42.736Z,57.43
2022-10-02T10:32:26.261Z,56.86
2022-10-02T10:35:41.834Z,56.00
2022-10-02T10:38:52.263Z,56.72
2022-10-02T10:42:11.380Z,56.05
2022-10-02T10:45:23.672Z,56.21
2022-10-02T10:48:36.123Z,56.30
2022-10-02T10:51:31.477Z,55.50
2022-10-02T10:55:02.209Z,57.38
2022-10-02T10:57:52.938Z,56.68
2022-10-02T11:00:23.909Z,55.84
2022-10-02T11:03:42.490Z,55.01
2022-10-02T11:06:56.120Z,53.85
2022-10-02T11:09:56.240Z,52.25
2022-10-02T11:13:01.090Z,50.60
2022-10-02T11:16:16.349Z,50.42
2022-10-02T11:19:29.053Z,50.46
2022-10-02T11:22:33.466Z,48.94
2022-10-02T11:25:30.159Z,48.33
2022-10-02T11:28:47.667Z,49.35
2022-10-02T11:31:35.262Z,50.42
2022-10-02T11:34:42.475Z,50.61
2022-10-02T11:37:48.772Z,49.83
2022-10-02T11:40:37.209Z,51.34
2022-10-02T11:43:40.520Z,51.78
2022-10-02T11:46:38.558Z,50.76
2022-10-02T11:49:49.952Z,48.39
2022-10-02T11:52:48.474Z,48.87
2022-10-02T11:55:46.198Z,50.85
2022-10-02T11:58:45.997Z,50.40
2022-10-02T12:01:32.087Z,49.55
2022-10-02T12:04:25.233Z,49.81
2022-10-02T12:07:27.603Z,49.89
2022-10-02T12:10:16.885Z,50.74
2022-10-02T12:13:02.313Z,52.30
2022-10-02T12:15:44.078Z,53.24
2022-10-02T12:18:36.295Z,53.77
2022-10-02T12:21:48.312Z,53.56
2022-10-02T12:24:54.111Z,52.93
2022-10-02T12:27:43.335Z,52.32
2022-10-02T12:30:15.439Z,52.29
2022-10-02T12:33:00.640Z,52.39
2022-10-02T12:35:51.311Z,51.49
2022-10-02T12:38:38.778Z,51.47
2022-10-02T12:41:30.520Z,51.64
2022-10-02T12:44:34.820Z,50.55
2022-10-02T12:47:42.446Z,51.60
2022-10-02T12:50:27.691Z,49.83
2022-10-02T12:54:01.914Z,48.78
2022-10-02T12:57:02.324Z,47.44
2022-10-02T12:59:42.926Z,46.15
2022-10-02T13:03:02.011Z,46.96
2022-10-02T13:05:54.044Z,45.86
2022-10-02T13:08:53.755Z,46.38
2022-10-02T13:11:39.647Z,47.73
2022-10-02T13:14:51.641Z,47.60
2022-10-02T13:17:35.935Z,47.51
2022-10-02T13:20:21.555Z,46.16
2022-10-02T13:23:01.133Z,47.34
2022-10-02T13:25:45.691Z,46.34
2022-10-02T13:28:47.200Z,46.23
2022-10-02T13:31:36.823Z,45.19
2022-10-02T13:34:27.730Z,42.43
2022-10-02T13:37:18.060Z,40.71
2022-10-02T13:40:17.246Z,41.11
2022-10-02T13:43:20.858Z,42.42
2022-10-02T13:46:02.357Z,43.72
2022-10-02T13:48:48.157Z,44.47
2022-10-02T13:51:23.330Z,45.03
2022-10-02T13:54:16.723Z,45.19
2022-10-02T13:56:55.719Z,45.91
2022-10-02T14:00:07.815Z,46.39
2022-10-02T14:03:01.577Z,45.49
2022-10-02T14:05:43.879Z,45.89
2022-10-02T14:08:46.333Z,46.90
2022-10-02T14:11:30.480Z,47.00
2022-10-02T14:14:18.702Z,47.85
2022-10-02T14:17:09.031Z,49.02
2022-10-02T14:24:48.354Z,47.15
2022-10-02T14:27:44.113Z,46.09
2022-10-02T14:30:19.862Z,44.60
2022-10-02T14:33:03.145Z,44.19
2022-10-02T14:35:44.361Z,43.57
2022-10-02T14:38:50.266Z,43.46
2022-10-02T14:42:06.950Z,44.43
2022-10-02T14:45:00.478Z,44.03
2022-10-02T14:47:57.350Z,42.80
2022-10-02T14:50:46.581Z,40.87
2022-10-02T14:53:50.316Z,40.22
2022-10-02T14:56:53.539Z,41.75
2022-10-02T14:59:54.050Z,40.04
2022-10-02T15:03:13.123Z,39.93
2022-10-02T15:06:22.608Z,39.56
2022-10-02T15:08:59.689Z,40.22
2022-10-02T15:12:00.109Z,39.77
2022-10-02T15:14:41.299Z,39.84
2022-10-02T15:17:35.470Z,40.00
2022-10-02T15:20:22.514Z,40.33
2022-10-02T15:22:58.930Z,40.23
2022-10-02T15:26:02.126Z,40.90
2022-10-02T15:28:52.409Z,40.95
2022-10-02T15:31:37.486Z,40.15
2022-10-02T15:34:21.906Z,40.62
2022-10-02T15:37:13.152Z,40.77
2022-10-02T15:40:23.705Z,40.47
2022-10-02T15:42:59.107Z,39.38
2022-10-02T15:46:03.213Z,40.91
2022-10-02T15:48:56.445Z,40.62
2022-10-02T15:51:39.956Z,40.98
2022-10-02T15:54:26.156Z,42.24
2022-10-02T15:57:11.810Z,41.20
2022-10-02T15:59:57.907Z,41.18
2022-10-02T16:03:01.485Z,40.55
2022-10-02T16:05:52.538Z,40.59
2022-10-02T16:09:04.599Z,41.14
2022-10-02T16:12:21.367Z,41.36
2022-10-02T16:15:12.557Z,42.49
2022-10-02T16:18:15.679Z,42.89
2022-10-02T16:21:12.628Z,43.42
2022-10-02T16:24:02.942Z,44.28
2022-10-02T16:26:57.912Z,44.61
2022-10-02T16:29:37.922Z,45.57
2022-10-02T16:32:24.108Z,46.46
2022-10-02T16:35:17.095Z,47.10
2022-10-02T16:37:49.141Z,48.28
2022-10-02T16:40:27.876Z,48.38
2022-10-02T16:43:36.746Z,49.46
2022-10-02T16:46:13.835Z,49.78
2022-10-02T16:48:52.238Z,50.03
2022-10-02T16:51:41.107Z,50.67
2022-10-02T16:54:25.665Z,51.43
2022-10-02T16:57:00.897Z,51.71
2022-10-02T16:59:39.994Z,52.42
2022-10-02T17:02:26.368Z,53.30
2022-10-02T17:05:07.408Z,53.84
2022-10-02T17:07:52.910Z,54.64
2022-10-02T17:10:33.280Z,55.19
2022-10-02T17:13:29.163Z,55.75
2022-10-02T17:16:08.862Z,56.35
2022-10-02T17:18:48.668Z,55.90
2022-10-02T17:21:26.008Z,55.98
2022-10-02T17:24:23.945Z,56.94
2022-10-02T17:27:06.851Z,56.96
2022-10-02T17:29:48.660Z,56.47
2022-10-02T17:32:38.616Z,56.52
2022-10-02T17:35:16.909Z,56.81
2022-10-02T17:38:11.431Z,57.14
2022-10-02T17:40:52.117Z,56.90
2022-10-02T17:43:31.599Z,57.77
2022-10-02T17:46:41.652Z,57.82
2022-10-02T17:49:27.673Z,58.15
2022-10-02T17:52:33.894Z,58.43
2022-10-02T17:55:47.917Z,58.82
2022-10-02T17:58:29.346Z,59.46
2022-10-02T18:01:17.895Z,59.08
2022-10-02T18:04:09.283Z,60.16
2022-10-02T18:06:52.740Z,60.10
2022-10-02T18:09:55.937Z,60.81
2022-10-02T18:12:51.620Z,61.19
2022-10-02T18:15:55.522Z,61.68
2022-10-02T18:18:33.131Z,61.87
2022-10-02T18:21:23.835Z,62.42
2022-10-02T18:24:33.707Z,62.75
2022-10-02T18:27:43.010Z,62.50
2022-10-02T18:30:19.182Z,63.20
2022-10-02T18:33:50.369Z,64.00
2022-10-02T18:36:35.753Z,64.33
2022-10-02T18:39:19.836Z,64.42
2022-10-02T18:42:16.800Z,64.15
2022-10-02T18:45:03.375Z,64.33
2022-10-02T18:47:45.979Z,64.40
2022-10-02T18:50:47.946Z,64.66
2022-10-02T18:53:50.644Z,65.02
2022-10-02T18:56:56.824Z,65.06
2022-10-02T18:59:46.002Z,65.19
2022-10-02T19:02:41.046Z,65.91
2022-10-02T19:05:27.093Z,65.94
2022-10-02T19:08:16.710Z,65.89
2022-10-02T19:10:46.769Z,66.33
2022-10-02T19:13:23.805Z,66.80
2022-10-02T19:15:56.479Z,66.59
2022-10-02T19:18:29.425Z,67.28
2022-10-02T19:21:06.512Z,67.19
2022-10-02T19:23:41.497Z,67.24
2022-10-02T19:26:20.031Z,67.61
2022-10-02T19:28:55.036Z,67.62
2022-10-02T19:31:28.177Z,67.48
2022-10-02T19:34:03.484Z,67.72
2022-10-02T19:36:38.122Z,68.86
2022-10-02T19:39:19.654Z,69.22
2022-10-02T19:41:53.278Z,69.93
2022-10-02T19:44:29.494Z,70.26
2022-10-02T19:47:02.794Z,69.79
2022-10-02T19:49:38.343Z,70.35
2022-10-02T19:52:30.317Z,70.50
2022-10-02T19:55:04.509Z,70.93
2022-10-02T19:57:40.465Z,70.94
2022-10-02T20:00:16.729Z,71.58
2022-10-02T20:02:50.389Z,71.95
2022-10-02T20:05:24.078Z,71.75
2022-10-02T20:08:01.935Z,72.10
2022-10-02T20:10:41.591Z,71.96
2022-10-02T20:13:21.787Z,72.81
2022-10-02T20:16:16.402Z,73.13
2022-10-02T20:18:45.936Z,73.79
2022-10-02T20:21:27.404Z,73.85
2022-10-02T20:24:00.074Z,73.84
2022-10-02T20:26:32.507Z,73.86
2022-10-02T20:29:12.041Z,74.47
2022-10-02T20:31:51.003Z,75.01
2022-10-02T20:34:30.214Z,75.27
2022-10-02T20:37:07.418Z,75.65
2022-10-02T20:39:45.048Z,75.59
2022-10-02T20:42:22.845Z,76.24
2022-10-02T20:44:51.176Z,76.11
2022-10-02T20:48:03.891Z,76.69
2022-10-02T20:50:46.881Z,76.78
2022-10-02T20:54:18.462Z,76.80
2022-10-02T20:58:00.845Z,77.20
2022-10-02T21:00:49.141Z,77.71
2022-10-02T21:03:38.409Z,77.39
2022-10-02T21:06:42.574Z,77.89
2022-10-02T21:09:55.641Z,77.93
2022-10-02T21:13:03.889Z,78.25
2022-10-02T21:16:19.938Z,78.68
2022-10-02T21:19:15.124Z,78.53
2022-10-02T21:22:21.397Z,79.06
2022-10-02T21:25:40.408Z,78.83
2022-10-02T21:28:56.593Z,79.15
2022-10-02T21:31:58.346Z,79.56
2022-10-02T21:34:45.751Z,79.98
2022-10-02T21:37:26.841Z,79.75
2022-10-02T21:40:57.310Z,80.96
2022-10-02T21:44:16.345Z,80.92
2022-10-02T21:47:13.699Z,80.61
2022-10-02T21:50:36.783Z,81.30
2022-10-02T21:53:49.773Z,81.24
2022-10-02T21:57:24.965Z,82.38
2022-10-02T22:00:15.799Z,82.71
2022-10-02T22:03:43.496Z,83.35
2022-10-02T22:06:36.589Z,83.44
2022-10-02T22:09:42.142Z,83.20
2022-10-02T22:12:39.257Z,83.33
2022-10-02T22:15:17.899Z,83.93
2022-10-02T22:17:58.904Z,84.26
2022-10-02T22:21:02.784Z,84.75
2022-10-02T22:24:10.461Z,84.62
2022-10-02T22:27:20.637Z,84.76
2022-10-02T22:29:53.802Z,83.74
2022-10-02T22:33:10.711Z,84.08
2022-10-02T22:36:29.909Z,84.86
2022-10-02T22:39:07.709Z,84.82
2022-10-02T22:41:45.331Z,84.60
2022-10-02T22:44:26.416Z,84.91
2022-10-02T22:47:05.266Z,84.91
2022-10-02T22:49:44.151Z,85.18
2022-10-02T22:52:22.688Z,85.58
2022-10-02T22:55:01.841Z,86.07
2022-10-02T22:57:38.858Z,86.40
2022-10-02T23:00:18.114Z,86.26
2022-10-02T23:02:58.766Z,85.19
2022-10-02T23:05:36.825Z,85.69
2022-10-02T23:08:22.993Z,86.50
2022-10-02T23:11:00.966Z,86.84
2022-10-02T23:13:36.799Z,86.53
2022-10-02T23:16:10.365Z,85.96
2022-10-02T23:18:45.905Z,86.08
2022-10-02T23:21:35.336Z,85.92
2022-10-02T23:24:23.271Z,86.33
2022-10-02T23:27:04.961Z,87.22
2022-10-02T23:29:46.394Z,88.16
2022-10-02T23:32:27.119Z,87.68
2022-10-02T23:35:10.150Z,87.31
2022-10-02T23:37:50.765Z,86.51
2022-10-02T23:40:46.929Z,85.53
2022-10-02T23:43:25.805Z,85.30
2022-10-02T23:46:03.732Z,86.27
2022-10-02T23:48:32.528Z,86.64
2022-10-02T23:51:17.223Z,88.10
2022-10-02T23:54:05.187Z,88.74
2022-10-02T23:57:12.956Z,88.08
